sensor_id;sensor_type;location;lat;lon;timestamp;temperature;humidity
68922;DHT22;55959;51.244;5.724;2023-04-25T00:01:31;10.20;68.70
68922;DHT22;55959;51.244;5.724;2023-04-25T00:04:01;10.20;68.80
68922;DHT22;55959;51.244;5.724;2023-04-25T00:06:28;10.20;68.80
68922;DHT22;55959;51.244;5.724;2023-04-25T00:08:55;10.30;69.00
68922;DHT22;55959;51.244;5.724;2023-04-25T00:11:22;10.20;68.90
68922;DHT22;55959;51.244;5.724;2023-04-25T00:13:48;10.30;69.10
68922;DHT22;55959;51.244;5.724;2023-04-25T00:16:16;10.30;69.20
68922;DHT22;55959;51.244;5.724;2023-04-25T00:18:42;10.30;69.40
68922;DHT22;55959;51.244;5.724;2023-04-25T00:21:08;10.20;69.30
68922;DHT22;55959;51.244;5.724;2023-04-25T00:23:34;10.20;69.30
68922;DHT22;55959;51.244;5.724;2023-04-25T00:26:02;10.20;69.40
68922;DHT22;55959;51.244;5.724;2023-04-25T00:28:28;10.20;69.40
68922;DHT22;55959;51.244;5.724;2023-04-25T00:30:54;10.20;69.40
68922;DHT22;55959;51.244;5.724;2023-04-25T00:33:19;10.30;69.50
68922;DHT22;55959;51.244;5.724;2023-04-25T00:35:45;10.30;69.50
68922;DHT22;55959;51.244;5.724;2023-04-25T00:38:11;10.20;69.50
68922;DHT22;55959;51.244;5.724;2023-04-25T00:40:37;10.20;69.50
68922;DHT22;55959;51.244;5.724;2023-04-25T00:43:02;10.10;69.50
68922;DHT22;55959;51.244;5.724;2023-04-25T00:45:29;10.10;69.50
68922;DHT22;55959;51.244;5.724;2023-04-25T00:47:55;10.10;69.60
68922;DHT22;55959;51.244;5.724;2023-04-25T00:50:22;10.10;69.90
68922;DHT22;55959;51.244;5.724;2023-04-25T00:52:48;10.00;69.80
68922;DHT22;55959;51.244;5.724;2023-04-25T00:55:14;10.00;70.00
68922;DHT22;55959;51.244;5.724;2023-04-25T00:57:42;10.00;70.10
68922;DHT22;55959;51.244;5.724;2023-04-25T01:00:09;9.90;70.30
68922;DHT22;55959;51.244;5.724;2023-04-25T01:02:36;9.90;70.40
68922;DHT22;55959;51.244;5.724;2023-04-25T01:05:03;9.80;70.40
68922;DHT22;55959;51.244;5.724;2023-04-25T01:07:29;9.80;70.80
68922;DHT22;55959;51.244;5.724;2023-04-25T01:09:55;9.80;71.00
68922;DHT22;55959;51.244;5.724;2023-04-25T01:12:22;9.70;71.20
68922;DHT22;55959;51.244;5.724;2023-04-25T01:14:48;9.60;71.20
68922;DHT22;55959;51.244;5.724;2023-04-25T01:17:14;9.60;71.80
68922;DHT22;55959;51.244;5.724;2023-04-25T01:19:40;9.60;71.40
68922;DHT22;55959;51.244;5.724;2023-04-25T01:22:07;9.50;71.40
68922;DHT22;55959;51.244;5.724;2023-04-25T01:24:35;9.50;71.40
68922;DHT22;55959;51.244;5.724;2023-04-25T01:27:02;9.50;71.40
68922;DHT22;55959;51.244;5.724;2023-04-25T01:29:29;9.50;71.60
68922;DHT22;55959;51.244;5.724;2023-04-25T01:31:55;9.50;71.50
68922;DHT22;55959;51.244;5.724;2023-04-25T01:34:21;9.50;71.40
68922;DHT22;55959;51.244;5.724;2023-04-25T01:36:50;9.50;71.40
68922;DHT22;55959;51.244;5.724;2023-04-25T01:39:17;9.50;71.40
68922;DHT22;55959;51.244;5.724;2023-04-25T01:41:44;9.50;71.20
68922;DHT22;55959;51.244;5.724;2023-04-25T01:44:11;9.60;71.20
68922;DHT22;55959;51.244;5.724;2023-04-25T01:46:37;9.60;71.10
68922;DHT22;55959;51.244;5.724;2023-04-25T01:49:03;9.60;71.30
68922;DHT22;55959;51.244;5.724;2023-04-25T01:51:29;9.60;71.40
68922;DHT22;55959;51.244;5.724;2023-04-25T01:53:56;9.50;71.30
68922;DHT22;55959;51.244;5.724;2023-04-25T01:56:22;9.50;71.50
68922;DHT22;55959;51.244;5.724;2023-04-25T01:58:48;9.50;71.50
68922;DHT22;55959;51.244;5.724;2023-04-25T02:01:14;9.50;71.50
68922;DHT22;55959;51.244;5.724;2023-04-25T02:03:40;9.50;71.40
68922;DHT22;55959;51.244;5.724;2023-04-25T02:06:06;9.50;71.40
68922;DHT22;55959;51.244;5.724;2023-04-25T02:08:31;9.50;71.30
68922;DHT22;55959;51.244;5.724;2023-04-25T02:10:57;9.50;71.40
68922;DHT22;55959;51.244;5.724;2023-04-25T02:13:23;9.50;71.20
68922;DHT22;55959;51.244;5.724;2023-04-25T02:15:49;9.60;71.10
68922;DHT22;55959;51.244;5.724;2023-04-25T02:18:15;9.60;71.00
68922;DHT22;55959;51.244;5.724;2023-04-25T02:20:43;9.60;70.80
68922;DHT22;55959;51.244;5.724;2023-04-25T02:23:09;9.60;70.70
68922;DHT22;55959;51.244;5.724;2023-04-25T02:25:35;9.60;70.60
68922;DHT22;55959;51.244;5.724;2023-04-25T02:28:01;9.60;70.40
68922;DHT22;55959;51.244;5.724;2023-04-25T02:30:27;9.70;70.50
68922;DHT22;55959;51.244;5.724;2023-04-25T02:32:53;9.70;70.60
68922;DHT22;55959;51.244;5.724;2023-04-25T02:35:19;9.60;70.40
68922;DHT22;55959;51.244;5.724;2023-04-25T02:37:45;9.70;70.30
68922;DHT22;55959;51.244;5.724;2023-04-25T02:40:11;9.70;70.30
68922;DHT22;55959;51.244;5.724;2023-04-25T02:42:36;9.60;70.40
68922;DHT22;55959;51.244;5.724;2023-04-25T02:45:02;9.60;70.40
68922;DHT22;55959;51.244;5.724;2023-04-25T02:47:29;9.70;70.60
68922;DHT22;55959;51.244;5.724;2023-04-25T02:49:55;9.70;70.60
68922;DHT22;55959;51.244;5.724;2023-04-25T02:52:21;9.70;70.70
68922;DHT22;55959;51.244;5.724;2023-04-25T02:54:46;9.70;70.70
68922;DHT22;55959;51.244;5.724;2023-04-25T02:57:12;9.70;70.60
68922;DHT22;55959;51.244;5.724;2023-04-25T02:59:38;9.70;70.70
68922;DHT22;55959;51.244;5.724;2023-04-25T03:02:04;9.60;70.80
68922;DHT22;55959;51.244;5.724;2023-04-25T03:04:29;9.70;70.90
68922;DHT22;55959;51.244;5.724;2023-04-25T03:06:55;9.70;71.00
68922;DHT22;55959;51.244;5.724;2023-04-25T03:09:21;9.70;71.00
68922;DHT22;55959;51.244;5.724;2023-04-25T03:11:47;9.60;71.00
68922;DHT22;55959;51.244;5.724;2023-04-25T03:14:13;9.60;70.90
68922;DHT22;55959;51.244;5.724;2023-04-25T03:16:39;9.70;71.00
68922;DHT22;55959;51.244;5.724;2023-04-25T03:19:05;9.70;71.10
68922;DHT22;55959;51.244;5.724;2023-04-25T03:21:32;9.70;72.00
68922;DHT22;55959;51.244;5.724;2023-04-25T03:24:02;9.60;71.20
68922;DHT22;55959;51.244;5.724;2023-04-25T03:26:29;9.60;71.50
68922;DHT22;55959;51.244;5.724;2023-04-25T03:28:55;9.50;71.60
68922;DHT22;55959;51.244;5.724;2023-04-25T03:31:20;9.50;71.80
68922;DHT22;55959;51.244;5.724;2023-04-25T03:33:47;9.50;72.10
68922;DHT22;55959;51.244;5.724;2023-04-25T03:36:13;9.40;72.20
68922;DHT22;55959;51.244;5.724;2023-04-25T03:38:39;9.40;72.40
68922;DHT22;55959;51.244;5.724;2023-04-25T03:41:06;9.40;72.70
68922;DHT22;55959;51.244;5.724;2023-04-25T03:43:33;9.30;72.90
68922;DHT22;55959;51.244;5.724;2023-04-25T03:45:59;9.30;73.10
68922;DHT22;55959;51.244;5.724;2023-04-25T03:48:26;9.30;73.20
68922;DHT22;55959;51.244;5.724;2023-04-25T03:50:52;9.30;73.20
68922;DHT22;55959;51.244;5.724;2023-04-25T03:53:19;9.30;73.20
68922;DHT22;55959;51.244;5.724;2023-04-25T03:55:44;9.30;73.20
68922;DHT22;55959;51.244;5.724;2023-04-25T03:58:10;9.30;73.20
68922;DHT22;55959;51.244;5.724;2023-04-25T04:00:36;9.40;74.00
68922;DHT22;55959;51.244;5.724;2023-04-25T04:03:02;9.40;73.00
68922;DHT22;55959;51.244;5.724;2023-04-25T04:05:28;9.40;72.90
68922;DHT22;55959;51.244;5.724;2023-04-25T04:07:54;9.50;72.90
68922;DHT22;55959;51.244;5.724;2023-04-25T04:10:20;9.50;72.70
68922;DHT22;55959;51.244;5.724;2023-04-25T04:12:46;9.50;72.60
68922;DHT22;55959;51.244;5.724;2023-04-25T04:15:12;9.50;72.40
68922;DHT22;55959;51.244;5.724;2023-04-25T04:17:38;9.50;72.40
68922;DHT22;55959;51.244;5.724;2023-04-25T04:20:05;9.60;72.40
68922;DHT22;55959;51.244;5.724;2023-04-25T04:22:31;9.60;72.20
68922;DHT22;55959;51.244;5.724;2023-04-25T04:24:57;9.60;72.20
68922;DHT22;55959;51.244;5.724;2023-04-25T04:27:23;9.60;72.20
68922;DHT22;55959;51.244;5.724;2023-04-25T04:29:49;9.50;72.00
68922;DHT22;55959;51.244;5.724;2023-04-25T04:32:17;9.60;72.10
68922;DHT22;55959;51.244;5.724;2023-04-25T04:34:43;9.50;72.00
68922;DHT22;55959;51.244;5.724;2023-04-25T04:37:09;9.50;72.00
68922;DHT22;55959;51.244;5.724;2023-04-25T04:39:36;9.50;72.10
68922;DHT22;55959;51.244;5.724;2023-04-25T04:42:02;9.50;72.20
68922;DHT22;55959;51.244;5.724;2023-04-25T04:44:29;9.50;72.30
68922;DHT22;55959;51.244;5.724;2023-04-25T04:46:58;9.50;72.40
68922;DHT22;55959;51.244;5.724;2023-04-25T04:49:24;9.40;72.40
68922;DHT22;55959;51.244;5.724;2023-04-25T04:51:50;9.40;72.50
68922;DHT22;55959;51.244;5.724;2023-04-25T04:54:16;9.40;72.70
68922;DHT22;55959;51.244;5.724;2023-04-25T04:56:41;9.30;72.80
68922;DHT22;55959;51.244;5.724;2023-04-25T04:59:07;9.30;72.90
68922;DHT22;55959;51.244;5.724;2023-04-25T05:01:33;9.30;73.00
68922;DHT22;55959;51.244;5.724;2023-04-25T05:04:01;9.30;73.20
68922;DHT22;55959;51.244;5.724;2023-04-25T05:06:28;9.30;73.20
68922;DHT22;55959;51.244;5.724;2023-04-25T05:08:57;9.30;73.40
68922;DHT22;55959;51.244;5.724;2023-04-25T05:11:24;9.30;73.50
68922;DHT22;55959;51.244;5.724;2023-04-25T05:13:52;9.20;73.40
68922;DHT22;55959;51.244;5.724;2023-04-25T05:16:18;9.30;73.60
68922;DHT22;55959;51.244;5.724;2023-04-25T05:18:45;9.30;73.60
68922;DHT22;55959;51.244;5.724;2023-04-25T05:21:11;9.30;73.60
68922;DHT22;55959;51.244;5.724;2023-04-25T05:23:37;9.30;73.50
68922;DHT22;55959;51.244;5.724;2023-04-25T05:26:03;9.40;73.60
68922;DHT22;55959;51.244;5.724;2023-04-25T05:28:29;9.40;73.40
68922;DHT22;55959;51.244;5.724;2023-04-25T05:30:55;9.40;73.40
68922;DHT22;55959;51.244;5.724;2023-04-25T05:33:20;9.50;73.40
68922;DHT22;55959;51.244;5.724;2023-04-25T05:35:46;9.50;73.40
68922;DHT22;55959;51.244;5.724;2023-04-25T05:38:12;9.50;73.40
68922;DHT22;55959;51.244;5.724;2023-04-25T05:40:38;9.60;73.40
68922;DHT22;55959;51.244;5.724;2023-04-25T05:43:03;9.60;73.30
68922;DHT22;55959;51.244;5.724;2023-04-25T05:45:29;9.70;73.20
68922;DHT22;55959;51.244;5.724;2023-04-25T05:47:55;9.70;73.20
68922;DHT22;55959;51.244;5.724;2023-04-25T05:50:21;9.70;73.20
68922;DHT22;55959;51.244;5.724;2023-04-25T05:52:47;9.70;73.10
68922;DHT22;55959;51.244;5.724;2023-04-25T05:55:12;9.80;73.00
68922;DHT22;55959;51.244;5.724;2023-04-25T05:57:38;9.80;72.80
68922;DHT22;55959;51.244;5.724;2023-04-25T06:00:07;9.80;72.50
68922;DHT22;55959;51.244;5.724;2023-04-25T06:02:34;9.80;72.50
68922;DHT22;55959;51.244;5.724;2023-04-25T06:05:01;9.80;72.50
68922;DHT22;55959;51.244;5.724;2023-04-25T06:07:30;9.90;72.60
68922;DHT22;55959;51.244;5.724;2023-04-25T06:09:56;9.90;72.60
68922;DHT22;55959;51.244;5.724;2023-04-25T06:12:22;9.90;72.50
68922;DHT22;55959;51.244;5.724;2023-04-25T06:14:48;9.90;72.30
68922;DHT22;55959;51.244;5.724;2023-04-25T06:17:14;10.00;72.40
68922;DHT22;55959;51.244;5.724;2023-04-25T06:19:39;10.00;72.30
68922;DHT22;55959;51.244;5.724;2023-04-25T06:22:07;10.00;72.30
68922;DHT22;55959;51.244;5.724;2023-04-25T06:24:33;10.10;72.10
68922;DHT22;55959;51.244;5.724;2023-04-25T06:26:59;10.10;72.30
68922;DHT22;55959;51.244;5.724;2023-04-25T06:29:25;10.20;72.30
68922;DHT22;55959;51.244;5.724;2023-04-25T06:31:51;10.20;72.30
68922;DHT22;55959;51.244;5.724;2023-04-25T06:34:17;10.30;72.20
68922;DHT22;55959;51.244;5.724;2023-04-25T06:36:43;10.30;71.70
68922;DHT22;55959;51.244;5.724;2023-04-25T06:39:10;10.40;71.80
68922;DHT22;55959;51.244;5.724;2023-04-25T06:41:36;10.40;71.90
68922;DHT22;55959;51.244;5.724;2023-04-25T06:44:02;10.50;71.70
68922;DHT22;55959;51.244;5.724;2023-04-25T06:46:28;10.60;71.70
68922;DHT22;55959;51.244;5.724;2023-04-25T06:48:53;10.60;71.60
68922;DHT22;55959;51.244;5.724;2023-04-25T06:51:19;10.70;71.10
68922;DHT22;55959;51.244;5.724;2023-04-25T06:53:45;10.80;71.00
68922;DHT22;55959;51.244;5.724;2023-04-25T06:56:10;10.90;70.70
68922;DHT22;55959;51.244;5.724;2023-04-25T06:58:37;11.00;70.30
68922;DHT22;55959;51.244;5.724;2023-04-25T07:01:03;11.10;69.10
68922;DHT22;55959;51.244;5.724;2023-04-25T07:03:29;11.10;67.30
68922;DHT22;55959;51.244;5.724;2023-04-25T07:05:56;11.20;66.40
68922;DHT22;55959;51.244;5.724;2023-04-25T07:08:22;11.20;66.50
68922;DHT22;55959;51.244;5.724;2023-04-25T07:10:48;11.30;66.50
68922;DHT22;55959;51.244;5.724;2023-04-25T07:13:13;11.30;66.50
68922;DHT22;55959;51.244;5.724;2023-04-25T07:15:39;11.30;67.10
68922;DHT22;55959;51.244;5.724;2023-04-25T07:18:05;11.40;66.30
68922;DHT22;55959;51.244;5.724;2023-04-25T07:20:31;11.40;66.30
68922;DHT22;55959;51.244;5.724;2023-04-25T07:22:58;11.50;66.30
68922;DHT22;55959;51.244;5.724;2023-04-25T07:25:23;11.60;65.10
68922;DHT22;55959;51.244;5.724;2023-04-25T07:27:50;11.60;64.20
68922;DHT22;55959;51.244;5.724;2023-04-25T07:30:16;11.60;64.50
68922;DHT22;55959;51.244;5.724;2023-04-25T07:32:42;11.60;64.70
68922;DHT22;55959;51.244;5.724;2023-04-25T07:35:08;11.70;64.70
68922;DHT22;55959;51.244;5.724;2023-04-25T07:37:35;11.70;64.60
68922;DHT22;55959;51.244;5.724;2023-04-25T07:40:02;11.80;63.50
68922;DHT22;55959;51.244;5.724;2023-04-25T07:42:30;11.80;63.30
68922;DHT22;55959;51.244;5.724;2023-04-25T07:44:56;11.80;62.00
68922;DHT22;55959;51.244;5.724;2023-04-25T07:47:22;11.80;61.70
68922;DHT22;55959;51.244;5.724;2023-04-25T07:49:48;11.80;61.30
68922;DHT22;55959;51.244;5.724;2023-04-25T07:52:14;11.80;59.50
68922;DHT22;55959;51.244;5.724;2023-04-25T07:54:39;11.80;60.00
68922;DHT22;55959;51.244;5.724;2023-04-25T07:57:05;11.80;59.60
68922;DHT22;55959;51.244;5.724;2023-04-25T07:59:34;11.80;59.70
68922;DHT22;55959;51.244;5.724;2023-04-25T08:02:00;11.80;60.70
68922;DHT22;55959;51.244;5.724;2023-04-25T08:04:26;11.80;61.30
68922;DHT22;55959;51.244;5.724;2023-04-25T08:06:52;11.90;62.10
68922;DHT22;55959;51.244;5.724;2023-04-25T08:09:19;12.00;62.10
68922;DHT22;55959;51.244;5.724;2023-04-25T08:11:45;12.10;62.20
68922;DHT22;55959;51.244;5.724;2023-04-25T08:14:12;12.10;60.80
68922;DHT22;55959;51.244;5.724;2023-04-25T08:16:38;12.20;59.40
68922;DHT22;55959;51.244;5.724;2023-04-25T08:19:04;12.30;59.00
68922;DHT22;55959;51.244;5.724;2023-04-25T08:21:30;12.30;58.50
68922;DHT22;55959;51.244;5.724;2023-04-25T08:23:57;12.40;56.60
68922;DHT22;55959;51.244;5.724;2023-04-25T08:26:25;12.40;55.70
68922;DHT22;55959;51.244;5.724;2023-04-25T08:28:51;12.40;56.40
68922;DHT22;55959;51.244;5.724;2023-04-25T08:31:17;12.40;57.70
68922;DHT22;55959;51.244;5.724;2023-04-25T08:33:43;12.40;57.30
68922;DHT22;55959;51.244;5.724;2023-04-25T08:36:10;12.50;58.00
68922;DHT22;55959;51.244;5.724;2023-04-25T08:38:36;12.60;57.70
68922;DHT22;55959;51.244;5.724;2023-04-25T08:41:02;12.70;56.30
68922;DHT22;55959;51.244;5.724;2023-04-25T08:43:29;12.70;56.60
68922;DHT22;55959;51.244;5.724;2023-04-25T08:46:01;12.70;55.70
68922;DHT22;55959;51.244;5.724;2023-04-25T08:48:28;12.80;56.00
68922;DHT22;55959;51.244;5.724;2023-04-25T08:50:55;12.80;55.60
68922;DHT22;55959;51.244;5.724;2023-04-25T08:53:29;12.80;55.80
68922;DHT22;55959;51.244;5.724;2023-04-25T08:55:58;12.80;56.10
68922;DHT22;55959;51.244;5.724;2023-04-25T08:58:25;12.80;55.70
68922;DHT22;55959;51.244;5.724;2023-04-25T09:00:52;12.80;55.90
68922;DHT22;55959;51.244;5.724;2023-04-25T09:03:18;12.90;56.10
68922;DHT22;55959;51.244;5.724;2023-04-25T09:05:45;12.90;56.70
68922;DHT22;55959;51.244;5.724;2023-04-25T09:08:11;12.90;56.80
68922;DHT22;55959;51.244;5.724;2023-04-25T09:10:38;13.00;56.60
68922;DHT22;55959;51.244;5.724;2023-04-25T09:13:10;13.00;56.60
68922;DHT22;55959;51.244;5.724;2023-04-25T09:15:51;13.10;56.40
68922;DHT22;55959;51.244;5.724;2023-04-25T09:18:32;13.10;56.20
68922;DHT22;55959;51.244;5.724;2023-04-25T09:21:10;13.10;55.50
68922;DHT22;55959;51.244;5.724;2023-04-25T09:23:48;13.10;55.70
68922;DHT22;55959;51.244;5.724;2023-04-25T09:26:17;13.20;55.70
68922;DHT22;55959;51.244;5.724;2023-04-25T09:28:44;13.20;54.70
68922;DHT22;55959;51.244;5.724;2023-04-25T09:31:11;13.10;53.80
68922;DHT22;55959;51.244;5.724;2023-04-25T09:33:37;13.20;54.20
68922;DHT22;55959;51.244;5.724;2023-04-25T09:38:41;13.20;52.90
68922;DHT22;55959;51.244;5.724;2023-04-25T09:41:09;13.10;53.80
68922;DHT22;55959;51.244;5.724;2023-04-25T09:43:36;13.10;53.50
68922;DHT22;55959;51.244;5.724;2023-04-25T09:46:02;13.10;52.30
68922;DHT22;55959;51.244;5.724;2023-04-25T09:48:29;13.00;50.90
68922;DHT22;55959;51.244;5.724;2023-04-25T09:53:38;13.00;53.50
68922;DHT22;55959;51.244;5.724;2023-04-25T09:56:07;13.00;53.00
68922;DHT22;55959;51.244;5.724;2023-04-25T09:58:35;13.00;53.60
68922;DHT22;55959;51.244;5.724;2023-04-25T10:01:04;13.00;54.10
68922;DHT22;55959;51.244;5.724;2023-04-25T10:03:32;13.10;54.70
68922;DHT22;55959;51.244;5.724;2023-04-25T10:06:11;13.10;55.50
68922;DHT22;55959;51.244;5.724;2023-04-25T10:08:38;13.10;54.30
68922;DHT22;55959;51.244;5.724;2023-04-25T10:11:06;13.20;54.40
68922;DHT22;55959;51.244;5.724;2023-04-25T10:13:34;13.20;54.70
68922;DHT22;55959;51.244;5.724;2023-04-25T10:16:03;13.30;53.50
68922;DHT22;55959;51.244;5.724;2023-04-25T10:18:31;13.30;53.10
68922;DHT22;55959;51.244;5.724;2023-04-25T10:21:00;13.30;53.80
68922;DHT22;55959;51.244;5.724;2023-04-25T10:23:27;13.40;52.70
68922;DHT22;55959;51.244;5.724;2023-04-25T10:25:55;13.40;51.70
68922;DHT22;55959;51.244;5.724;2023-04-25T10:28:21;13.40;52.20
68922;DHT22;55959;51.244;5.724;2023-04-25T10:31:03;13.40;53.10
68922;DHT22;55959;51.244;5.724;2023-04-25T10:33:36;13.50;53.70
68922;DHT22;55959;51.244;5.724;2023-04-25T10:36:31;13.50;53.80
68922;DHT22;55959;51.244;5.724;2023-04-25T10:39:03;13.60;53.70
68922;DHT22;55959;51.244;5.724;2023-04-25T10:41:55;13.60;53.30
68922;DHT22;55959;51.244;5.724;2023-04-25T10:44:22;13.70;53.00
68922;DHT22;55959;51.244;5.724;2023-04-25T10:46:48;13.80;50.90
68922;DHT22;55959;51.244;5.724;2023-04-25T10:49:46;13.80;50.90
68922;DHT22;55959;51.244;5.724;2023-04-25T10:57:29;13.90;52.80
68922;DHT22;55959;51.244;5.724;2023-04-25T11:00:13;13.90;51.90
68922;DHT22;55959;51.244;5.724;2023-04-25T11:03:02;14.00;52.10
68922;DHT22;55959;51.244;5.724;2023-04-25T11:05:39;14.00;52.00
68922;DHT22;55959;51.244;5.724;2023-04-25T11:08:11;14.10;51.70
68922;DHT22;55959;51.244;5.724;2023-04-25T11:10:39;14.10;51.60
68922;DHT22;55959;51.244;5.724;2023-04-25T11:13:05;14.20;50.80
68922;DHT22;55959;51.244;5.724;2023-04-25T11:15:31;14.20;51.20
68922;DHT22;55959;51.244;5.724;2023-04-25T11:17:57;14.20;51.80
68922;DHT22;55959;51.244;5.724;2023-04-25T11:20:25;14.30;51.20
68922;DHT22;55959;51.244;5.724;2023-04-25T11:22:51;14.40;51.90
68922;DHT22;55959;51.244;5.724;2023-04-25T11:25:17;14.50;52.20
68922;DHT22;55959;51.244;5.724;2023-04-25T11:27:57;14.60;51.10
68922;DHT22;55959;51.244;5.724;2023-04-25T11:30:24;14.70;51.20
68922;DHT22;55959;51.244;5.724;2023-04-25T11:32:52;14.70;51.50
68922;DHT22;55959;51.244;5.724;2023-04-25T11:35:19;14.80;51.40
68922;DHT22;55959;51.244;5.724;2023-04-25T11:37:45;14.80;51.60
68922;DHT22;55959;51.244;5.724;2023-04-25T11:40:12;14.80;51.20
68922;DHT22;55959;51.244;5.724;2023-04-25T11:42:47;14.80;50.90
68922;DHT22;55959;51.244;5.724;2023-04-25T11:45:14;14.80;50.40
68922;DHT22;55959;51.244;5.724;2023-04-25T11:47:40;14.80;50.90
68922;DHT22;55959;51.244;5.724;2023-04-25T11:50:07;14.80;50.90
68922;DHT22;55959;51.244;5.724;2023-04-25T11:52:40;14.80;50.10
68922;DHT22;55959;51.244;5.724;2023-04-25T11:55:08;14.80;50.20
68922;DHT22;55959;51.244;5.724;2023-04-25T11:57:35;14.80;49.70
68922;DHT22;55959;51.244;5.724;2023-04-25T12:00:13;14.80;48.90
68922;DHT22;55959;51.244;5.724;2023-04-25T12:02:43;14.80;45.30
68922;DHT22;55959;51.244;5.724;2023-04-25T12:05:11;14.70;45.90
68922;DHT22;55959;51.244;5.724;2023-04-25T12:07:38;14.60;46.70
68922;DHT22;55959;51.244;5.724;2023-04-25T12:10:11;14.50;46.50
68922;DHT22;55959;51.244;5.724;2023-04-25T12:12:42;14.40;44.40
68922;DHT22;55959;51.244;5.724;2023-04-25T12:15:22;14.30;45.60
68922;DHT22;55959;51.244;5.724;2023-04-25T12:17:51;14.20;45.80
68922;DHT22;55959;51.244;5.724;2023-04-25T12:20:24;14.00;45.20
68922;DHT22;55959;51.244;5.724;2023-04-25T12:22:51;13.90;47.00
68922;DHT22;55959;51.244;5.724;2023-04-25T12:25:40;13.80;48.20
68922;DHT22;55959;51.244;5.724;2023-04-25T12:28:17;13.80;49.70
68922;DHT22;55959;51.244;5.724;2023-04-25T12:33:27;13.90;51.30
68922;DHT22;55959;51.244;5.724;2023-04-25T12:35:55;13.90;51.70
68922;DHT22;55959;51.244;5.724;2023-04-25T12:38:31;13.90;51.80
68922;DHT22;55959;51.244;5.724;2023-04-25T12:40:59;13.90;51.90
68922;DHT22;55959;51.244;5.724;2023-04-25T12:43:25;13.90;52.00
68922;DHT22;55959;51.244;5.724;2023-04-25T12:45:54;13.90;52.20
68922;DHT22;55959;51.244;5.724;2023-04-25T12:48:21;13.90;52.20
68922;DHT22;55959;51.244;5.724;2023-04-25T12:50:48;13.90;52.50
68922;DHT22;55959;51.244;5.724;2023-04-25T12:53:16;13.80;52.40
68922;DHT22;55959;51.244;5.724;2023-04-25T12:55:42;13.80;52.60
68922;DHT22;55959;51.244;5.724;2023-04-25T12:58:08;13.80;52.70
68922;DHT22;55959;51.244;5.724;2023-04-25T13:00:34;13.80;52.70
68922;DHT22;55959;51.244;5.724;2023-04-25T13:03:00;13.90;52.90
68922;DHT22;55959;51.244;5.724;2023-04-25T13:05:25;13.90;53.20
68922;DHT22;55959;51.244;5.724;2023-04-25T13:07:51;13.90;53.30
68922;DHT22;55959;51.244;5.724;2023-04-25T13:10:17;13.90;53.90
68922;DHT22;55959;51.244;5.724;2023-04-25T13:12:43;14.00;52.50
68922;DHT22;55959;51.244;5.724;2023-04-25T13:15:10;14.00;51.80
68922;DHT22;55959;51.244;5.724;2023-04-25T13:17:37;14.00;51.60
68922;DHT22;55959;51.244;5.724;2023-04-25T13:20:05;14.10;51.90
68922;DHT22;55959;51.244;5.724;2023-04-25T13:22:34;14.10;51.60
68922;DHT22;55959;51.244;5.724;2023-04-25T13:25:04;14.20;49.70
68922;DHT22;55959;51.244;5.724;2023-04-25T13:27:31;14.20;48.00
68922;DHT22;55959;51.244;5.724;2023-04-25T13:30:02;14.10;47.30
68922;DHT22;55959;51.244;5.724;2023-04-25T13:32:33;14.10;48.60
68922;DHT22;55959;51.244;5.724;2023-04-25T13:35:02;14.10;47.80
68922;DHT22;55959;51.244;5.724;2023-04-25T13:37:29;14.10;49.30
68922;DHT22;55959;51.244;5.724;2023-04-25T13:39:55;14.10;47.90
68922;DHT22;55959;51.244;5.724;2023-04-25T13:42:22;14.20;46.50
68922;DHT22;55959;51.244;5.724;2023-04-25T13:44:48;14.20;46.90
68922;DHT22;55959;51.244;5.724;2023-04-25T13:47:14;14.30;48.30
68922;DHT22;55959;51.244;5.724;2023-04-25T13:49:40;14.40;48.20
68922;DHT22;55959;51.244;5.724;2023-04-25T13:52:05;14.50;48.80
68922;DHT22;55959;51.244;5.724;2023-04-25T13:54:31;14.60;47.50
68922;DHT22;55959;51.244;5.724;2023-04-25T13:56:57;14.60;46.20
68922;DHT22;55959;51.244;5.724;2023-04-25T13:59:24;14.70;46.80
68922;DHT22;55959;51.244;5.724;2023-04-25T14:01:51;14.80;46.70
68922;DHT22;55959;51.244;5.724;2023-04-25T14:04:17;14.80;46.00
68922;DHT22;55959;51.244;5.724;2023-04-25T14:06:43;14.90;46.70
68922;DHT22;55959;51.244;5.724;2023-04-25T14:09:09;14.90;43.30
68922;DHT22;55959;51.244;5.724;2023-04-25T14:11:36;14.70;43.90
68922;DHT22;55959;51.244;5.724;2023-04-25T14:14:02;14.60;44.20
68922;DHT22;55959;51.244;5.724;2023-04-25T14:16:29;14.50;45.50
68922;DHT22;55959;51.244;5.724;2023-04-25T14:18:55;14.40;43.00
68922;DHT22;55959;51.244;5.724;2023-04-25T14:21:21;14.30;42.60
68922;DHT22;55959;51.244;5.724;2023-04-25T14:23:47;14.20;44.20
68922;DHT22;55959;51.244;5.724;2023-04-25T14:26:13;14.10;44.40
68922;DHT22;55959;51.244;5.724;2023-04-25T14:28:39;14.10;44.90
68922;DHT22;55959;51.244;5.724;2023-04-25T14:31:04;14.10;45.70
68922;DHT22;55959;51.244;5.724;2023-04-25T14:33:30;14.10;46.30
68922;DHT22;55959;51.244;5.724;2023-04-25T14:35:57;14.10;46.80
68922;DHT22;55959;51.244;5.724;2023-04-25T14:38:23;14.20;47.60
68922;DHT22;55959;51.244;5.724;2023-04-25T14:40:51;14.20;46.20
68922;DHT22;55959;51.244;5.724;2023-04-25T14:43:17;14.10;44.70
68922;DHT22;55959;51.244;5.724;2023-04-25T14:45:43;14.10;45.70
68922;DHT22;55959;51.244;5.724;2023-04-25T14:48:08;14.10;46.40
68922;DHT22;55959;51.244;5.724;2023-04-25T14:50:34;14.10;45.20
68922;DHT22;55959;51.244;5.724;2023-04-25T14:53:00;14.20;44.30
68922;DHT22;55959;51.244;5.724;2023-04-25T14:55:29;14.20;44.60
68922;DHT22;55959;51.244;5.724;2023-04-25T14:57:55;14.10;45.50
68922;DHT22;55959;51.244;5.724;2023-04-25T15:00:21;14.20;45.30
68922;DHT22;55959;51.244;5.724;2023-04-25T15:02:51;14.20;45.40
68922;DHT22;55959;51.244;5.724;2023-04-25T15:05:17;14.30;46.10
68922;DHT22;55959;51.244;5.724;2023-04-25T15:07:43;14.40;46.60
68922;DHT22;55959;51.244;5.724;2023-04-25T15:10:10;14.40;46.40
68922;DHT22;55959;51.244;5.724;2023-04-25T15:12:41;14.50;46.30
68922;DHT22;55959;51.244;5.724;2023-04-25T15:15:10;14.70;45.90
68922;DHT22;55959;51.244;5.724;2023-04-25T15:17:40;14.70;46.10
68922;DHT22;55959;51.244;5.724;2023-04-25T15:20:10;14.80;46.60
68922;DHT22;55959;51.244;5.724;2023-04-25T15:22:38;14.90;45.30
68922;DHT22;55959;51.244;5.724;2023-04-25T15:25:04;14.90;46.50
68922;DHT22;55959;51.244;5.724;2023-04-25T15:27:33;15.00;47.10
68922;DHT22;55959;51.244;5.724;2023-04-25T15:30:04;15.00;47.40
68922;DHT22;55959;51.244;5.724;2023-04-25T15:32:32;15.10;47.90
68922;DHT22;55959;51.244;5.724;2023-04-25T15:34:58;15.10;47.90
68922;DHT22;55959;51.244;5.724;2023-04-25T15:37:24;15.20;47.60
68922;DHT22;55959;51.244;5.724;2023-04-25T15:40:01;15.20;47.40
68922;DHT22;55959;51.244;5.724;2023-04-25T15:42:38;15.20;47.50
68922;DHT22;55959;51.244;5.724;2023-04-25T15:45:05;15.20;47.30
68922;DHT22;55959;51.244;5.724;2023-04-25T15:47:32;15.20;47.60
68922;DHT22;55959;51.244;5.724;2023-04-25T15:50:00;15.20;47.30